createdAt,value
2022-11-17T00:00:27.992Z,100197.22
2022-11-17T00:02:51.750Z,100191.66
2022-11-17T00:05:16.342Z,100189.03
2022-11-17T00:07:39.885Z,100193.56
2022-11-17T00:10:05.822Z,100191.22
2022-11-17T00:12:46.480Z,100200.28
2022-11-17T00:15:10.679Z,100197.13
2022-11-17T00:17:34.202Z,100199.47
2022-11-17T00:20:15.215Z,100185.41
2022-11-17T00:22:38.962Z,100185.09
2022-11-17T00:25:02.542Z,100192.06
2022-11-17T00:27:27.573Z,100186.56
2022-11-17T00:29:51.150Z,100182.09
2022-11-17T00:32:33.103Z,100187.19
2022-11-17T00:34:56.746Z,100181.97
2022-11-17T00:37:20.310Z,100190.72
2022-11-17T00:39:44.143Z,100180.16
2022-11-17T00:42:07.722Z,100176.13
2022-11-17T00:44:32.735Z,100172.59
2022-11-17T00:46:56.303Z,100169.72
2022-11-17T00:49:21.618Z,100177.78
2022-11-17T00:51:45.187Z,100159.47
2022-11-17T00:54:12.849Z,100159.03
2022-11-17T00:56:36.362Z,100163.91
2022-11-17T00:59:00.186Z,100156.25
2022-11-17T01:01:25.256Z,100153.28
2022-11-17T01:03:49.300Z,100164.53
2022-11-17T01:06:15.645Z,100159.38
2022-11-17T01:08:39.737Z,100170.44
2022-11-17T01:11:10.730Z,100174.69
2022-11-17T01:13:34.552Z,100177.38
2022-11-17T01:16:03.531Z,100171.38
2022-11-17T01:18:29.463Z,100169.16
2022-11-17T01:20:53.022Z,100161.00
2022-11-17T01:23:16.609Z,100161.94
2022-11-17T01:25:40.917Z,100164.78
2022-11-17T01:28:04.840Z,100158.91
2022-11-17T01:30:28.424Z,100160.66
2022-11-17T01:32:52.035Z,100159.16
2022-11-17T01:35:17.180Z,100160.53
2022-11-17T01:37:40.857Z,100152.41
2022-11-17T01:40:05.112Z,100144.25
2022-11-17T01:42:29.261Z,100153.25
2022-11-17T01:44:59.748Z,100149.09
2022-11-17T01:47:28.743Z,100146.56
2022-11-17T01:49:57.145Z,100145.28
2022-11-17T01:52:22.500Z,100141.03
2022-11-17T01:54:49.938Z,100132.44
2022-11-17T01:57:18.830Z,100137.72
2022-11-17T01:59:46.552Z,100142.28
2022-11-17T02:02:10.229Z,100137.06
2022-11-17T02:04:36.919Z,100134.97
2022-11-17T02:07:09.667Z,100143.34
2022-11-17T02:09:37.486Z,100139.22
2022-11-17T02:12:01.070Z,100138.34
2022-11-17T02:14:24.703Z,100142.16
2022-11-17T02:16:48.269Z,100136.88
2022-11-17T02:19:16.565Z,100129.63
2022-11-17T02:22:24.055Z,100145.22
2022-11-17T02:25:16.577Z,100143.81
2022-11-17T02:28:04.505Z,100145.06
2022-11-17T02:30:34.942Z,100133.25
2022-11-17T02:33:04.856Z,100136.56
2022-11-17T02:35:37.625Z,100130.09
2022-11-17T02:38:12.328Z,100131.34
2022-11-17T02:40:41.382Z,100116.75
2022-11-17T02:43:30.152Z,100120.13
2022-11-17T02:45:58.946Z,100121.28
2022-11-17T02:48:29.537Z,100115.03
2022-11-17T02:50:55.706Z,100100.44
2022-11-17T02:53:21.209Z,100104.47
2022-11-17T02:55:51.706Z,100098.34
2022-11-17T02:58:16.633Z,100097.53
2022-11-17T03:00:52.992Z,100094.38
2022-11-17T03:03:34.453Z,100095.34
2022-11-17T03:06:11.738Z,100090.56
2022-11-17T03:08:49.366Z,100088.44
2022-11-17T03:11:14.717Z,100085.91
2022-11-17T03:13:47.707Z,100085.44
2022-11-17T03:16:25.917Z,100087.31
2022-11-17T03:19:03.431Z,100089.06
2022-11-17T03:21:32.915Z,100090.56
2022-11-17T03:24:05.107Z,100085.91
2022-11-17T03:26:34.908Z,100086.84
2022-11-17T03:29:03.562Z,100096.31
2022-11-17T03:31:29.483Z,100089.00
2022-11-17T03:33:54.001Z,100079.38
2022-11-17T03:36:22.582Z,100084.78
2022-11-17T03:38:54.242Z,100082.00
2022-11-17T03:41:21.372Z,100082.50
2022-11-17T03:43:48.544Z,100084.34
2022-11-17T03:46:17.382Z,100087.38
2022-11-17T03:48:48.295Z,100075.44
2022-11-17T03:51:16.115Z,100075.78
2022-11-17T03:53:39.625Z,100080.94
2022-11-17T03:56:14.682Z,100068.34
2022-11-17T03:58:47.258Z,100072.78
2022-11-17T04:01:12.813Z,100064.06
2022-11-17T04:03:38.395Z,100072.06
2022-11-17T04:06:02.231Z,100074.13
2022-11-17T04:08:29.554Z,100077.78
2022-11-17T04:11:10.833Z,100072.56
2022-11-17T04:14:03.334Z,100073.03
2022-11-17T04:16:28.410Z,100063.13
2022-11-17T04:18:55.904Z,100067.69
2022-11-17T04:21:22.413Z,100078.03
2022-11-17T04:23:45.979Z,100072.97
2022-11-17T04:26:28.286Z,100060.13
2022-11-17T04:28:52.522Z,100048.19
2022-11-17T04:31:18.043Z,100057.69
2022-11-17T04:33:45.378Z,100056.81
2022-11-17T04:36:10.083Z,100048.03
2022-11-17T04:38:33.812Z,100046.59
2022-11-17T04:41:23.997Z,100042.53
2022-11-17T04:43:48.001Z,100048.13
2022-11-17T04:46:11.533Z,100052.19
2022-11-17T04:48:35.139Z,100043.66
2022-11-17T04:51:00.151Z,100042.38
2022-11-17T04:53:24.761Z,100033.44
2022-11-17T04:55:48.419Z,100038.44
2022-11-17T04:58:12.058Z,100034.41
2022-11-17T05:00:35.609Z,100037.56
2022-11-17T05:02:59.245Z,100038.97
2022-11-17T05:05:22.750Z,100040.94
2022-11-17T05:07:47.728Z,100048.97
2022-11-17T05:10:13.926Z,100038.22
2022-11-17T05:12:54.714Z,100036.06
2022-11-17T05:15:38.394Z,100037.16
2022-11-17T05:18:00.947Z,100028.53
2022-11-17T05:20:24.504Z,100029.50
2022-11-17T05:23:07.238Z,100035.88
2022-11-17T05:25:30.870Z,100033.75
2022-11-17T05:27:55.135Z,100030.00
2022-11-17T05:30:18.842Z,100026.50
2022-11-17T05:32:42.382Z,100020.16
2022-11-17T05:35:07.089Z,100004.06
2022-11-17T05:37:30.860Z,100012.25
2022-11-17T05:39:55.934Z,100006.31
2022-11-17T05:42:19.525Z,100011.63
2022-11-17T05:44:43.284Z,100008.97
2022-11-17T05:47:07.003Z,100003.22
2022-11-17T05:49:30.734Z,99995.66
2022-11-17T05:51:54.408Z,99998.41
2022-11-17T05:54:18.165Z,99990.00
2022-11-17T05:56:46.942Z,100004.59
2022-11-17T05:59:24.728Z,100001.81
2022-11-17T06:01:57.978Z,100008.09
2022-11-17T06:04:21.928Z,100003.94
2022-11-17T06:06:46.706Z,100014.50
2022-11-17T06:09:10.338Z,100002.88
2022-11-17T06:11:33.845Z,100002.13
2022-11-17T06:13:58.866Z,100004.59
2022-11-17T06:16:26.099Z,99999.19
2022-11-17T06:18:55.503Z,100003.84
2022-11-17T06:21:19.636Z,100011.44
2022-11-17T06:23:44.315Z,100004.06
2022-11-17T06:26:10.742Z,100015.69
2022-11-17T06:28:36.721Z,100005.88
2022-11-17T06:31:02.225Z,100004.41
2022-11-17T06:33:26.074Z,100003.97
2022-11-17T06:35:50.761Z,99997.47
2022-11-17T06:38:14.394Z,99995.97
2022-11-17T06:40:38.026Z,99998.22
2022-11-17T06:43:10.620Z,99992.34
2022-11-17T06:45:35.002Z,99988.31
2022-11-17T06:47:59.938Z,99993.44
2022-11-17T06:50:23.734Z,99982.56
2022-11-17T06:52:47.329Z,99981.53
2022-11-17T06:55:11.346Z,99974.06
2022-11-17T06:57:35.007Z,99984.38
2022-11-17T06:59:58.591Z,99978.59
2022-11-17T07:02:22.121Z,99976.91
2022-11-17T07:04:47.095Z,99972.47
2022-11-17T07:07:11.210Z,99972.22
2022-11-17T07:09:34.836Z,99958.72
2022-11-17T07:11:58.862Z,99949.97
2022-11-17T07:14:22.458Z,99956.06
2022-11-17T07:16:46.032Z,99956.75
2022-11-17T07:19:09.896Z,99959.53
2022-11-17T07:21:34.839Z,99963.59
2022-11-17T07:23:58.539Z,99956.03
2022-11-17T07:26:22.129Z,99951.97
2022-11-17T07:28:45.767Z,99947.38
2022-11-17T07:31:10.800Z,99950.16
2022-11-17T07:33:34.704Z,99959.53
2022-11-17T07:36:02.689Z,99962.09
2022-11-17T07:38:27.673Z,99967.03
2022-11-17T07:40:51.358Z,99963.16
2022-11-17T07:43:14.896Z,99969.34
2022-11-17T07:45:38.741Z,99967.19
2022-11-17T07:48:06.998Z,99963.91
2022-11-17T07:50:30.918Z,99960.78
2022-11-17T07:52:58.212Z,99963.81
2022-11-17T07:55:24.131Z,99971.56
2022-11-17T07:57:47.806Z,99970.97
2022-11-17T08:00:13.580Z,99969.88
2022-11-17T08:02:37.140Z,99963.94
2022-11-17T08:05:00.651Z,99963.56
2022-11-17T08:07:24.547Z,99965.97
2022-11-17T08:09:48.113Z,99960.94
2022-11-17T08:12:13.063Z,99961.25
2022-11-17T08:14:36.570Z,99957.13
2022-11-17T08:17:00.148Z,99956.50
2022-11-17T08:19:23.657Z,99960.84
2022-11-17T08:21:47.659Z,99951.06
2022-11-17T08:24:13.274Z,99961.50
2022-11-17T08:26:36.862Z,99955.19
2022-11-17T08:29:02.116Z,99954.31
2022-11-17T08:31:25.964Z,99951.72
2022-11-17T08:33:49.540Z,99940.56
2022-11-17T08:36:13.147Z,99942.41
2022-11-17T08:38:37.239Z,99947.94
2022-11-17T08:41:04.164Z,99950.16
2022-11-17T08:43:27.782Z,99946.84
2022-11-17T08:45:52.908Z,99945.56
2022-11-17T08:48:16.470Z,99948.81
2022-11-17T08:50:40.168Z,99925.34
2022-11-17T08:53:03.693Z,99942.44
2022-11-17T08:55:27.485Z,99943.41
2022-11-17T08:57:51.040Z,99919.94
2022-11-17T09:00:16.393Z,99933.22
2022-11-17T09:02:41.561Z,99935.13
2022-11-17T09:05:05.758Z,99921.94
2022-11-17T09:07:34.550Z,99935.19
2022-11-17T09:09:58.426Z,99929.41
2022-11-17T09:12:21.965Z,99935.75
2022-11-17T09:14:45.653Z,99936.78
2022-11-17T09:17:09.710Z,99953.47
2022-11-17T09:19:34.817Z,99958.84
2022-11-17T09:21:58.441Z,99954.47
2022-11-17T09:24:22.245Z,99953.56
2022-11-17T09:26:45.847Z,99965.63
2022-11-17T09:29:10.090Z,99967.97
2022-11-17T09:31:33.684Z,99961.53
2022-11-17T09:34:00.840Z,99956.06
2022-11-17T09:36:28.831Z,99949.19
2022-11-17T09:38:52.410Z,99947.31
2022-11-17T09:41:28.931Z,99950.69
2022-11-17T09:44:03.777Z,99942.78
2022-11-17T09:46:44.428Z,99943.91
2022-11-17T09:49:18.844Z,99950.28
2022-11-17T09:51:46.467Z,99944.56
2022-11-17T09:54:21.009Z,99942.78
2022-11-17T09:56:47.787Z,99931.41
2022-11-17T09:59:15.330Z,99933.09
2022-11-17T10:01:39.209Z,99937.63
2022-11-17T10:04:02.816Z,99931.94
2022-11-17T10:06:28.885Z,99937.16
2022-11-17T10:09:01.924Z,99939.06
2022-11-17T10:11:34.164Z,99947.13
2022-11-17T10:13:58.074Z,99945.34
2022-11-17T10:16:21.679Z,99955.59
2022-11-17T10:18:45.279Z,99946.25
2022-11-17T10:21:10.256Z,99942.03
2022-11-17T10:23:42.845Z,99942.28
2022-11-17T10:26:14.318Z,99931.66
2022-11-17T10:28:38.077Z,99922.91
2022-11-17T10:31:04.740Z,99926.75
2022-11-17T10:33:38.039Z,99920.13
2022-11-17T10:36:02.102Z,99921.91
2022-11-17T10:38:29.578Z,99914.00
2022-11-17T10:40:54.859Z,99909.28
2022-11-17T10:43:25.838Z,99914.88
2022-11-17T10:45:51.841Z,99909.75
2022-11-17T10:48:26.730Z,99909.75
2022-11-17T10:50:56.186Z,99908.78
2022-11-17T10:53:29.976Z,99902.50
2022-11-17T10:56:05.331Z,99897.59
2022-11-17T10:58:32.168Z,99898.38
2022-11-17T11:00:58.498Z,99899.78
2022-11-17T11:03:25.921Z,99897.03
2022-11-17T11:06:16.223Z,99891.03
2022-11-17T11:08:52.639Z,99881.59
2022-11-17T11:11:42.630Z,99863.50
2022-11-17T11:14:17.507Z,99864.25
2022-11-17T11:16:47.661Z,99872.72
2022-11-17T11:19:16.707Z,99865.47
2022-11-17T11:22:23.421Z,99865.63
2022-11-17T11:24:53.073Z,99870.06
2022-11-17T11:27:47.274Z,99858.69
2022-11-17T11:30:15.850Z,99859.16
2022-11-17T11:32:56.330Z,99863.78
2022-11-17T11:35:50.657Z,99862.25
2022-11-17T11:38:42.489Z,99862.19
2022-11-17T11:41:25.073Z,99853.84
2022-11-17T11:44:03.931Z,99837.63
2022-11-17T11:46:43.447Z,99842.69
2022-11-17T11:49:17.689Z,99843.16
2022-11-17T11:51:41.465Z,99842.34
2022-11-17T11:54:13.602Z,99837.00
2022-11-17T11:56:40.807Z,99852.25
2022-11-17T11:59:08.818Z,99830.75
2022-11-17T12:01:46.335Z,99832.97
2022-11-17T12:04:26.662Z,99852.34
2022-11-17T12:06:57.388Z,99844.03
2022-11-17T12:09:54.545Z,99826.44
2022-11-17T12:12:21.908Z,99839.66
2022-11-17T12:15:14.163Z,99826.47
2022-11-17T12:17:39.585Z,99831.41
2022-11-17T12:20:10.916Z,99824.03
2022-11-17T12:23:08.616Z,99837.97
2022-11-17T12:25:36.108Z,99832.75
2022-11-17T12:27:59.785Z,99830.19
2022-11-17T12:30:53.830Z,99836.03
2022-11-17T12:33:18.856Z,99833.94
2022-11-17T12:35:42.465Z,99833.81
2022-11-17T12:38:42.852Z,99841.72
2022-11-17T12:41:07.333Z,99838.66
2022-11-17T12:43:32.150Z,99835.84
2022-11-17T12:46:08.308Z,99823.84
2022-11-17T12:48:36.843Z,99829.09
2022-11-17T12:51:09.100Z,99838.69
2022-11-17T12:53:57.699Z,99826.31
2022-11-17T12:57:00.037Z,99837.31
2022-11-17T12:59:53.044Z,99833.59
2022-11-17T13:02:48.900Z,99818.44
2022-11-17T13:05:19.243Z,99823.25
2022-11-17T13:07:42.856Z,99831.03
2022-11-17T13:10:07.292Z,99824.41
2022-11-17T13:12:32.640Z,99828.13
2022-11-17T13:14:58.078Z,99829.94
2022-11-17T13:17:24.192Z,99822.69
2022-11-17T13:19:48.097Z,99820.47
2022-11-17T13:22:19.733Z,99822.31
2022-11-17T13:24:45.866Z,99823.53
2022-11-17T13:27:23.197Z,99824.72
2022-11-17T13:29:47.044Z,99824.03
2022-11-17T13:32:20.296Z,99818.56
2022-11-17T13:34:48.791Z,99818.91
2022-11-17T13:37:20.149Z,99815.16
2022-11-17T13:39:56.850Z,99805.72
2022-11-17T13:42:23.519Z,99812.88
2022-11-17T13:44:47.470Z,99811.66
2022-11-17T13:47:21.641Z,99802.53
2022-11-17T13:49:45.349Z,99809.91
2022-11-17T13:52:37.979Z,99819.56
2022-11-17T13:55:08.037Z,99810.88
2022-11-17T13:57:32.467Z,99813.19
2022-11-17T13:59:57.088Z,99819.84
2022-11-17T14:02:29.543Z,99816.72
2022-11-17T14:05:23.824Z,99794.63
2022-11-17T14:07:50.669Z,99816.22
2022-11-17T14:10:16.257Z,99803.81
2022-11-17T14:12:39.804Z,99799.41
2022-11-17T14:15:03.553Z,99800.09
2022-11-17T14:17:27.191Z,99806.59
2022-11-17T14:19:50.977Z,99812.78
2022-11-17T14:22:32.502Z,99791.53
2022-11-17T14:24:57.526Z,99798.16
2022-11-17T14:27:43.431Z,99811.91
2022-11-17T14:30:08.624Z,99802.81
2022-11-17T14:32:34.735Z,99810.69
2022-11-17T14:34:59.576Z,99809.19
2022-11-17T14:37:23.125Z,99805.97
2022-11-17T14:39:46.740Z,99799.34
2022-11-17T14:42:12.243Z,99806.25
2022-11-17T14:44:35.830Z,99815.44
2022-11-17T14:46:59.371Z,99805.13
2022-11-17T14:49:22.931Z,99811.97
2022-11-17T14:51:49.965Z,99814.00
2022-11-17T14:54:13.592Z,99810.88
2022-11-17T14:56:37.110Z,99813.22
2022-11-17T14:59:02.408Z,99819.09
2022-11-17T15:01:30.417Z,99812.03
2022-11-17T15:03:55.311Z,99805.00
2022-11-17T15:06:20.371Z,99813.13
2022-11-17T15:08:44.960Z,99814.56
2022-11-17T15:11:08.615Z,99813.06
2022-11-17T15:13:32.371Z,99810.38
2022-11-17T15:16:04.206Z,99807.03
2022-11-17T15:18:27.879Z,99809.03
2022-11-17T15:21:02.059Z,99807.81
2022-11-17T15:23:25.704Z,99818.25
2022-11-17T15:25:49.211Z,99805.97
2022-11-17T15:28:18.925Z,99813.75
2022-11-17T15:30:44.998Z,99812.31
2022-11-17T15:33:09.921Z,99806.56
2022-11-17T15:35:33.571Z,99807.72
2022-11-17T15:37:57.069Z,99804.91
2022-11-17T15:40:20.669Z,99808.84
2022-11-17T15:42:44.217Z,99802.91
2022-11-17T15:45:09.460Z,99809.41
2022-11-17T15:47:33.466Z,99819.56
2022-11-17T15:49:59.065Z,99813.22
2022-11-17T15:52:41.739Z,99816.53
2022-11-17T15:55:07.232Z,99810.78
2022-11-17T15:57:30.748Z,99803.72
2022-11-17T15:59:54.530Z,99813.25
2022-11-17T16:02:19.388Z,99813.38
2022-11-17T16:04:43.154Z,99808.25
2022-11-17T16:07:08.263Z,99810.13
2022-11-17T16:09:31.952Z,99795.16
2022-11-17T16:11:55.510Z,99811.38
2022-11-17T16:14:19.127Z,99809.19
2022-11-17T16:16:43.855Z,99807.16
2022-11-17T16:19:08.284Z,99813.78
2022-11-17T16:21:31.874Z,99812.81
2022-11-17T16:24:00.545Z,99802.06
2022-11-17T16:26:26.082Z,99815.19
2022-11-17T16:28:49.865Z,99810.75
2022-11-17T16:31:16.201Z,99809.44
2022-11-17T16:33:39.783Z,99804.25
2022-11-17T16:36:06.399Z,99800.94
2022-11-17T16:38:30.028Z,99800.31
2022-11-17T16:40:55.018Z,99800.34
2022-11-17T16:43:18.633Z,99795.19
2022-11-17T16:45:45.025Z,99800.22
2022-11-17T16:48:09.223Z,99795.31
2022-11-17T16:50:32.755Z,99794.03
2022-11-17T16:52:56.365Z,99797.19
2022-11-17T16:55:19.943Z,99799.91
2022-11-17T16:57:45.566Z,99788.25
2022-11-17T17:00:11.328Z,99792.38
2022-11-17T17:02:35.031Z,99790.75
2022-11-17T17:04:58.535Z,99803.81
2022-11-17T17:07:22.179Z,99802.88
2022-11-17T17:09:45.869Z,99805.06
2022-11-17T17:12:09.545Z,99806.41
2022-11-17T17:14:34.444Z,99801.16
2022-11-17T17:16:58.102Z,99814.16
2022-11-17T17:19:21.680Z,99808.13
2022-11-17T17:21:46.032Z,99798.44
2022-11-17T17:24:11.025Z,99812.13
2022-11-17T17:26:35.974Z,99811.66
2022-11-17T17:29:01.351Z,99813.59
2022-11-17T17:31:30.640Z,99806.28
2022-11-17T17:33:56.144Z,99816.28
2022-11-17T17:36:21.701Z,99807.13
2022-11-17T17:38:50.123Z,99808.84
2022-11-17T17:41:18.905Z,99817.88
2022-11-17T17:43:43.711Z,99808.63
2022-11-17T17:46:15.327Z,99814.91
2022-11-17T17:48:42.680Z,99810.03
2022-11-17T17:51:09.605Z,99818.34
2022-11-17T17:53:33.572Z,99815.81
2022-11-17T17:56:01.483Z,99819.50
2022-11-17T17:58:25.077Z,99818.47
2022-11-17T18:00:49.823Z,99822.78
2022-11-17T18:03:13.493Z,99816.31
2022-11-17T18:05:38.439Z,99818.31
2022-11-17T18:08:02.057Z,99820.25
2022-11-17T18:10:25.649Z,99829.22
2022-11-17T18:12:49.289Z,99820.56
2022-11-17T18:15:13.239Z,99826.13
2022-11-17T18:17:36.910Z,99815.88
2022-11-17T18:20:00.566Z,99817.31
2022-11-17T18:22:25.561Z,99816.13
2022-11-17T18:24:49.088Z,99807.31
2022-11-17T18:27:12.715Z,99820.06
2022-11-17T18:29:36.271Z,99822.84
2022-11-17T18:31:59.861Z,99818.78
2022-11-17T18:34:25.350Z,99825.69
2022-11-17T18:36:49.209Z,99824.72
2022-11-17T18:39:15.127Z,99821.56
2022-11-17T18:41:38.996Z,99830.13
2022-11-17T18:44:02.919Z,99821.66
2022-11-17T18:46:30.033Z,99823.03
2022-11-17T18:48:56.000Z,99830.81
2022-11-17T18:51:21.963Z,99834.66
2022-11-17T18:53:45.784Z,99827.63
2022-11-17T18:56:13.667Z,99822.72
2022-11-17T18:58:37.694Z,99836.13
2022-11-17T19:01:08.243Z,99841.25
2022-11-17T19:03:31.917Z,99832.16
2022-11-17T19:05:55.433Z,99832.56
2022-11-17T19:08:19.124Z,99830.56
2022-11-17T19:10:51.354Z,99836.00
2022-11-17T19:13:16.307Z,99829.03
2022-11-17T19:15:39.803Z,99833.66
2022-11-17T19:18:03.429Z,99841.75
2022-11-17T19:20:27.236Z,99832.75
2022-11-17T19:22:50.829Z,99836.88
2022-11-17T19:25:14.515Z,99852.00
2022-11-17T19:27:38.103Z,99837.72
2022-11-17T19:30:03.017Z,99837.50
2022-11-17T19:32:26.620Z,99835.19
2022-11-17T19:34:51.805Z,99839.84
2022-11-17T19:37:15.727Z,99834.00
2022-11-17T19:39:39.307Z,99838.28
2022-11-17T19:42:02.950Z,99830.28
2022-11-17T19:44:26.464Z,99844.31
2022-11-17T19:46:51.395Z,99836.88
2022-11-17T19:49:15.411Z,99847.19
2022-11-17T19:51:39.823Z,99844.63
2022-11-17T19:54:05.537Z,99846.97
2022-11-17T19:56:29.444Z,99849.19
2022-11-17T19:58:53.764Z,99855.78
2022-11-17T20:01:19.571Z,99840.38
2022-11-17T20:03:45.218Z,99849.50
2022-11-17T20:06:10.136Z,99845.06
2022-11-17T20:08:34.388Z,99856.41
2022-11-17T20:11:05.198Z,99865.75
2022-11-17T20:13:30.946Z,99862.47
2022-11-17T20:15:57.806Z,99862.03
2022-11-17T20:18:21.381Z,99854.50
2022-11-17T20:20:46.354Z,99863.13
2022-11-17T20:23:10.052Z,99864.44
2022-11-17T20:25:33.600Z,99866.75
2022-11-17T20:27:57.313Z,99859.53
2022-11-17T20:30:21.010Z,99859.56
2022-11-17T20:32:44.747Z,99858.19
2022-11-17T20:35:09.310Z,99860.28
2022-11-17T20:37:34.297Z,99864.44
2022-11-17T20:39:57.925Z,99858.44
2022-11-17T20:42:21.590Z,99863.63
2022-11-17T20:44:45.495Z,99871.25
2022-11-17T20:47:09.079Z,99864.59
2022-11-17T20:49:32.660Z,99867.81
2022-11-17T20:51:56.192Z,99867.69
2022-11-17T20:54:21.121Z,99868.25
2022-11-17T20:56:45.221Z,99869.97
2022-11-17T20:59:08.982Z,99868.41
2022-11-17T21:01:32.785Z,99879.50
2022-11-17T21:03:56.327Z,99867.50
2022-11-17T21:06:23.052Z,99872.25
2022-11-17T21:08:47.459Z,99865.59
2022-11-17T21:11:35.789Z,99872.88
2022-11-17T21:13:59.773Z,99879.00
2022-11-17T21:16:23.290Z,99879.03
2022-11-17T21:18:49.078Z,99870.91
2022-11-17T21:21:12.675Z,99862.88
2022-11-17T21:23:36.286Z,99864.34
2022-11-17T21:26:04.406Z,99867.41
2022-11-17T21:28:29.344Z,99877.16
2022-11-17T21:30:53.098Z,99875.06
2022-11-17T21:33:16.935Z,99873.72
2022-11-17T21:35:40.492Z,99879.13
2022-11-17T21:38:04.147Z,99886.56
2022-11-17T21:40:27.683Z,99881.50
2022-11-17T21:42:51.264Z,99885.34
2022-11-17T21:45:16.276Z,99885.13
2022-11-17T21:47:39.864Z,99872.00
2022-11-17T21:50:03.429Z,99882.22
2022-11-17T21:52:27.149Z,99882.47
2022-11-17T21:54:50.741Z,99884.78
2022-11-17T21:57:14.410Z,99886.78
2022-11-17T21:59:37.959Z,99888.78
2022-11-17T22:02:03.133Z,99887.88
2022-11-17T22:04:26.647Z,99885.53
2022-11-17T22:06:50.242Z,99896.72
2022-11-17T22:09:14.318Z,99888.47
2022-11-17T22:11:39.167Z,99897.66
2022-11-17T22:14:05.548Z,99903.22
2022-11-17T22:16:29.114Z,99905.44
2022-11-17T22:18:53.981Z,99909.19
2022-11-17T22:21:17.573Z,99903.72
2022-11-17T22:23:41.495Z,99906.22
2022-11-17T22:26:07.870Z,99900.63
2022-11-17T22:28:32.177Z,99910.84
2022-11-17T22:30:56.562Z,99911.63
2022-11-17T22:33:20.413Z,99910.81
2022-11-17T22:35:45.429Z,99906.16
2022-11-17T22:38:08.978Z,99915.03
2022-11-17T22:40:32.563Z,99910.50
2022-11-17T22:42:56.073Z,99913.44
2022-11-17T22:45:19.636Z,99911.81
2022-11-17T22:47:43.188Z,99903.44
2022-11-17T22:50:07.965Z,99907.94
2022-11-17T22:52:32.864Z,99903.47
2022-11-17T22:54:56.409Z,99922.06
2022-11-17T22:57:19.950Z,99914.97
2022-11-17T22:59:43.539Z,99915.31
2022-11-17T23:02:07.047Z,99924.34
2022-11-17T23:04:30.651Z,99926.34
2022-11-17T23:06:54.262Z,99922.56
2022-11-17T23:09:19.406Z,99914.50
2022-11-17T23:11:43.690Z,99922.63
2022-11-17T23:14:10.704Z,99924.03
2022-11-17T23:16:34.263Z,99929.91
2022-11-17T23:18:58.840Z,99926.22
2022-11-17T23:21:22.747Z,99931.25
2022-11-17T23:23:46.339Z,99923.56
2022-11-17T23:26:13.524Z,99930.31
2022-11-17T23:28:37.443Z,99926.53
2022-11-17T23:31:01.502Z,99931.53
2022-11-17T23:33:25.100Z,99932.50
2022-11-17T23:35:48.671Z,99930.03
2022-11-17T23:38:12.244Z,99930.56
2022-11-17T23:40:35.748Z,99934.50
2022-11-17T23:43:00.720Z,99935.44
2022-11-17T23:45:24.237Z,99930.59
2022-11-17T23:47:47.855Z,99930.97
2022-11-17T23:50:11.601Z,99930.75
2022-11-17T23:52:35.201Z,99931.19
2022-11-17T23:54:58.800Z,99937.59
2022-11-17T23:57:22.387Z,99936.56
2022-11-17T23:59:47.294Z,99947.38
